createdAt,value
2023-02-14T10:11:47.446Z,13.50
2023-02-14T10:16:45.272Z,13.07
2023-02-14T10:21:43.804Z,16.03
2023-02-14T10:26:40.242Z,13.87
2023-02-14T10:31:41.084Z,17.77
2023-02-14T10:36:47.724Z,18.77
2023-02-14T10:41:51.400Z,11.93
2023-02-14T10:46:51.600Z,13.57
2023-02-14T10:51:52.558Z,13.37
2023-02-14T10:56:51.360Z,14.77
2023-02-14T11:01:46.872Z,13.77
2023-02-14T11:06:40.443Z,14.23
2023-02-14T11:11:38.848Z,13.00
2023-02-14T11:16:36.041Z,13.37
2023-02-14T11:21:39.272Z,12.30
2023-02-14T11:26:36.143Z,13.17
2023-02-14T11:31:32.553Z,12.63
2023-02-14T11:36:26.861Z,13.40
2023-02-14T11:41:21.988Z,12.10
2023-02-14T11:46:18.022Z,13.37
2023-02-14T11:51:14.143Z,14.13
2023-02-14T11:56:08.088Z,14.20
2023-02-14T12:01:03.951Z,14.13
2023-02-14T12:06:00.803Z,13.70
2023-02-14T12:11:03.835Z,12.80
2023-02-14T12:15:58.809Z,17.03
2023-02-14T12:20:59.914Z,14.67
2023-02-14T12:25:58.819Z,14.20
2023-02-14T12:30:52.593Z,18.57
2023-02-14T12:35:54.879Z,15.80
2023-02-14T12:40:58.028Z,16.17
2023-02-14T12:46:12.978Z,16.40
2023-02-14T12:51:12.186Z,12.23
2023-02-14T12:56:18.360Z,12.35
2023-02-14T13:01:42.173Z,12.55
2023-02-14T13:06:38.758Z,12.77
2023-02-14T13:11:43.988Z,14.07
2023-02-14T13:16:45.529Z,15.07
2023-02-14T13:21:40.755Z,11.68
2023-02-14T13:26:41.066Z,12.48
2023-02-14T13:31:35.249Z,11.15
2023-02-14T13:36:30.013Z,13.20
2023-02-14T13:41:25.703Z,13.73
2023-02-14T13:46:23.935Z,10.27
2023-02-14T13:51:17.625Z,14.30
2023-02-14T13:56:33.487Z,11.27
2023-02-14T14:01:39.103Z,12.25
2023-02-14T14:07:11.287Z,13.73
2023-02-14T14:12:38.908Z,12.73
2023-02-14T14:17:34.072Z,13.90
2023-02-14T14:22:28.835Z,12.45
2023-02-14T14:27:27.258Z,9.93
2023-02-14T14:32:26.613Z,10.43
2023-02-14T14:37:22.583Z,10.13
2023-02-14T14:42:20.782Z,9.52
2023-02-14T14:47:20.418Z,12.68
2023-02-14T14:52:27.356Z,10.37
2023-02-14T14:57:21.558Z,12.80
2023-02-14T15:02:26.834Z,12.83
2023-02-14T15:07:24.141Z,12.70
2023-02-14T15:12:39.801Z,12.37
2023-02-14T15:17:35.847Z,14.90
2023-02-14T15:22:34.075Z,13.23
2023-02-14T15:27:29.351Z,12.73
2023-02-14T15:32:23.471Z,12.03
2023-02-14T15:37:19.393Z,14.27
2023-02-14T15:42:26.004Z,15.57
2023-02-14T15:47:20.363Z,15.90
2023-02-14T15:52:16.432Z,23.20
2023-02-14T15:57:22.945Z,44.63
2023-02-14T16:02:29.341Z,24.87
2023-02-14T16:07:27.468Z,31.73
2023-02-14T16:12:36.857Z,34.57
2023-02-14T16:17:37.389Z,296.60
2023-02-14T16:22:38.412Z,179.47
2023-02-14T16:27:33.791Z,386.80
2023-02-14T16:32:27.559Z,293.50
2023-02-14T16:37:24.249Z,68.43
2023-02-14T16:42:19.575Z,74.83
